Time;durP1;ratioP1;P1;durP2;ratioP2;P2;SDS_P1;SDS_P2;PMS_P1;PMS_P2;Temp;Humidity;BMP_temperature;BMP_pressure;BME280_temperature;BME280_humidity;BME280_pressure;Samples;Min_cycle;Max_cycle;Signal;HPM_P1;HPM_P2
2021/12/30 00:00:40;;;;;;;;;;;;;;;2.73;99.33;99683.36;1705039;82;20201;-80
2021/12/30 00:03:06;;;;;;;;;;;;;;;2.81;99.02;99692.75;1700709;82;21301;-80
2021/12/30 00:05:33;;;;;;;;;;;;;;;2.79;98.95;99693.33;1707069;82;20145;-84
2021/12/30 00:07:58;;;;;;;;;;;;;;;2.75;99.15;99688.00;1714126;82;20991;-79
2021/12/30 00:10:24;;;;;;;;;;;;;;;2.80;98.96;99692.38;1698317;82;20554;-79
2021/12/30 00:12:51;;;;;;;;;;;;;;;2.83;98.77;99696.06;1689230;83;20140;-81
2021/12/30 00:15:17;;;;;;;;;;;;;;;2.90;98.45;99696.89;1694032;83;20207;-80
2021/12/30 00:17:42;;;;;;;;;;;;;;;2.89;98.34;99698.69;1694267;83;20566;-78
2021/12/30 00:20:08;;;;;;;;;;;;;;;2.92;98.20;99698.45;1685503;83;21850;-80
2021/12/30 00:22:36;;;;;;;;;;;;;;;2.97;98.10;99700.70;1685014;83;20430;-80
2021/12/30 00:25:02;;;;;;;;;;;;;;;2.98;97.95;99715.38;1687302;83;20199;-83
2021/12/30 00:27:27;;;;;;;;;;;;;;;2.97;98.13;99715.05;1685931;83;20163;-79
2021/12/30 00:29:53;;;;;;;;;;;;;;;2.98;98.08;99714.08;1690421;83;20445;-82
2021/12/30 00:32:19;;;;;;;;;;;;;;;3.01;98.00;99712.53;1685186;83;21128;-80
2021/12/30 00:34:44;;;;;;;;;;;;;;;2.92;98.47;99708.88;1690683;83;20928;-80
2021/12/30 00:37:10;;;;;;;;;;;;;;;3.03;98.04;99713.23;1698076;83;20492;-84
2021/12/30 00:39:35;;;;;;;;;;;;;;;3.02;97.99;99710.30;1675181;83;20211;-81
2021/12/30 00:42:01;;;;;;;;;;;;;;;3.05;97.92;99706.15;1688867;83;20161;-79
2021/12/30 00:44:26;;;;;;;;;;;;;;;3.01;98.42;99712.53;1681731;83;21138;-80
2021/12/30 00:46:52;;;;;;;;;;;;;;;2.99;98.54;99711.84;1682743;83;20207;-83
2021/12/30 00:49:18;;;;;;;;;;;;;;;3.04;98.45;99702.69;1690036;83;20113;-83
2021/12/30 00:51:43;;;;;;;;;;;;;;;3.05;98.35;99712.67;1690548;83;20505;-81
2021/12/30 00:54:09;;;;;;;;;;;;;;;3.05;98.50;99715.27;1687465;83;20125;-80
2021/12/30 00:56:35;;;;;;;;;;;;;;;3.04;98.68;99717.52;1698367;83;21112;-79
2021/12/30 00:59:00;;;;;;;;;;;;;;;2.99;99.41;99709.23;1688480;83;20154;-79
2021/12/30 01:01:26;;;;;;;;;;;;;;;3.07;98.94;99698.20;1689226;83;20251;-82
2021/12/30 01:03:52;;;;;;;;;;;;;;;3.12;98.73;99697.36;1691745;83;20259;-80
2021/12/30 01:06:17;;;;;;;;;;;;;;;3.11;98.87;99695.23;1687791;83;20300;-81
2021/12/30 01:08:43;;;;;;;;;;;;;;;3.13;98.81;99701.64;1693218;83;21094;-85
2021/12/30 01:11:09;;;;;;;;;;;;;;;3.11;98.99;99690.02;1688887;83;20361;-81
2021/12/30 01:13:39;;;;;;;;;;;;;;;3.15;98.84;99688.81;1691514;83;20208;-82
2021/12/30 01:16:04;;;;;;;;;;;;;;;3.18;98.70;99683.84;1685237;83;20462;-79
2021/12/30 01:18:39;;;;;;;;;;;;;;;3.14;99.08;99689.78;1690441;83;20239;-80
2021/12/30 01:21:01;;;;;;;;;;;;;;;3.16;98.88;99687.05;1688031;83;20189;-82
2021/12/30 01:23:26;;;;;;;;;;;;;;;3.20;98.65;99689.30;1686272;83;20497;-78
2021/12/30 01:25:52;;;;;;;;;;;;;;;3.18;98.92;99686.45;1696186;83;20201;-80
2021/12/30 01:28:17;;;;;;;;;;;;;;;3.10;99.97;99687.53;1692535;83;20814;-77
2021/12/30 01:30:43;;;;;;;;;;;;;;;3.11;100.00;99691.78;1682336;83;20163;-78
2021/12/30 01:33:09;;;;;;;;;;;;;;;3.07;100.00;99690.38;1681824;83;21394;-77
2021/12/30 01:35:34;;;;;;;;;;;;;;;3.03;100.00;99694.53;1668747;85;20530;-77
2021/12/30 01:38:01;;;;;;;;;;;;;;;3.01;100.00;99691.67;1669269;84;20164;-78
2021/12/30 01:40:29;;;;;;;;;;;;;;;2.94;100.00;99682.68;1664439;84;20224;-78
2021/12/30 01:42:54;;;;;;;;;;;;;;;2.97;100.00;99691.09;1659120;85;20205;-78
2021/12/30 01:45:20;;;;;;;;;;;;;;;3.01;100.00;99704.71;1664845;85;21099;-77
2021/12/30 01:47:55;;;;;;;;;;;;;;;3.10;100.00;99702.70;1661663;85;20694;-78
2021/12/30 01:50:13;;;;;;;;;;;;;;;3.14;100.00;99700.22;1656139;85;20189;-77
2021/12/30 01:52:39;;;;;;;;;;;;;;;3.22;100.00;99694.40;1660204;85;20218;-82
2021/12/30 01:55:05;;;;;;;;;;;;;;;3.26;100.00;99706.72;1666790;85;20244;-77
2021/12/30 01:57:30;;;;;;;;;;;;;;;3.15;100.00;99704.46;1668887;84;21005;-79
2021/12/30 01:59:56;;;;;;;;;;;;;;;3.19;100.00;99703.28;1666523;85;20142;-79
2021/12/30 02:02:22;;;;;;;;;;;;;;;3.21;100.00;99709.20;1674153;85;20594;-78
2021/12/30 02:04:47;;;;;;;;;;;;;;;3.22;100.00;99703.53;1668823;85;20441;-79
2021/12/30 02:07:14;;;;;;;;;;;;;;;3.30;100.00;99701.63;1670444;85;20927;-78
2021/12/30 02:09:39;;;;;;;;;;;;;;;3.34;100.00;99695.20;1666329;85;22044;-81
2021/12/30 02:12:06;;;;;;;;;;;;;;;3.35;100.00;99692.47;1669529;85;20307;-79
2021/12/30 02:14:33;;;;;;;;;;;;;;;3.37;100.00;99692.34;1661438;85;20183;-80
2021/12/30 02:16:59;;;;;;;;;;;;;;;3.40;100.00;99694.72;1664003;85;20697;-79
2021/12/30 02:19:25;;;;;;;;;;;;;;;3.27;100.00;99688.82;1663493;85;20201;-84
2021/12/30 02:21:51;;;;;;;;;;;;;;;3.24;100.00;99690.70;1667727;85;21096;-79
2021/12/30 02:24:16;;;;;;;;;;;;;;;3.26;100.00;99697.59;1656739;85;20181;-80
2021/12/30 02:26:42;;;;;;;;;;;;;;;3.34;100.00;99699.11;1672046;85;20788;-79
2021/12/30 02:29:08;;;;;;;;;;;;;;;3.38;100.00;99700.05;1673294;84;20172;-79
2021/12/30 02:31:34;;;;;;;;;;;;;;;3.35;100.00;99696.87;1676064;85;20147;-77
2021/12/30 02:34:00;;;;;;;;;;;;;;;3.37;100.00;99701.48;1674912;83;21434;-80
2021/12/30 02:36:29;;;;;;;;;;;;;;;3.32;100.00;99694.50;1693023;83;20210;-79
2021/12/30 02:38:55;;;;;;;;;;;;;;;3.28;100.00;99695.22;1701289;83;20199;-84
2021/12/30 02:41:21;;;;;;;;;;;;;;;3.31;100.00;99691.52;1700568;83;20223;-79
2021/12/30 02:43:47;;;;;;;;;;;;;;;3.32;100.00;99693.20;1692661;83;20633;-79
2021/12/30 02:46:13;;;;;;;;;;;;;;;3.26;100.00;99690.58;1690563;83;21940;-77
2021/12/30 02:48:41;;;;;;;;;;;;;;;3.28;100.00;99688.70;1698706;83;20569;-80
2021/12/30 02:51:08;;;;;;;;;;;;;;;3.28;100.00;99693.07;1692521;83;20168;-82
2021/12/30 02:53:34;;;;;;;;;;;;;;;3.27;100.00;99692.73;1696267;83;20623;-78
2021/12/30 02:55:59;;;;;;;;;;;;;;;3.22;100.00;99697.83;1695644;83;20196;-79
2021/12/30 02:58:25;;;;;;;;;;;;;;;3.11;100.00;99696.54;1701964;83;21143;-85
2021/12/30 03:01:06;;;;;;;;;;;;;;;3.17;100.00;99692.15;1708176;83;20357;-82
2021/12/30 03:03:31;;;;;;;;;;;;;;;3.24;100.00;99693.31;1700254;83;20532;-78
2021/12/30 03:05:58;;;;;;;;;;;;;;;3.27;100.00;99691.43;1696882;83;20127;-78
2021/12/30 03:08:24;;;;;;;;;;;;;;;3.24;100.00;99692.48;1697972;83;20235;-78
2021/12/30 03:10:50;;;;;;;;;;;;;;;3.26;100.00;99687.97;1695548;83;21082;-78
2021/12/30 03:13:19;;;;;;;;;;;;;;;3.27;100.00;99694.04;1705755;83;20147;-81
2021/12/30 03:15:46;;;;;;;;;;;;;;;3.27;100.00;99694.04;1698527;83;20180;-78
2021/12/30 03:18:11;;;;;;;;;;;;;;;3.36;100.00;99697.23;1689460;83;20239;-77
2021/12/30 03:20:38;;;;;;;;;;;;;;;3.40;100.00;99695.56;1690265;83;20212;-77
2021/12/30 03:23:03;;;;;;;;;;;;;;;3.46;100.00;99696.84;1696136;83;21145;-77
2021/12/30 03:25:29;;;;;;;;;;;;;;;3.48;100.00;99694.11;1706022;83;20202;-77
2021/12/30 03:27:55;;;;;;;;;;;;;;;3.55;100.00;99693.50;1699986;83;20381;-81
2021/12/30 03:30:20;;;;;;;;;;;;;;;3.52;100.00;99693.74;1701919;83;20503;-78
2021/12/30 03:32:46;;;;;;;;;;;;;;;3.57;100.00;99700.75;1708154;83;20144;-77
2021/12/30 03:35:12;;;;;;;;;;;;;;;3.49;100.00;99700.52;1689329;83;21148;-80
2021/12/30 03:37:38;;;;;;;;;;;;;;;3.57;100.00;99707.28;1696065;83;20209;-81
2021/12/30 03:40:05;;;;;;;;;;;;;;;3.59;100.00;99713.20;1701574;83;20744;-80
2021/12/30 03:42:31;;;;;;;;;;;;;;;3.49;100.00;99720.58;1696905;83;20205;-77
2021/12/30 03:44:57;;;;;;;;;;;;;;;3.43;100.00;99726.28;1695289;83;20478;-77
2021/12/30 03:47:23;;;;;;;;;;;;;;;3.56;100.00;99719.97;1690280;83;22025;-80
2021/12/30 03:49:49;;;;;;;;;;;;;;;3.59;100.00;99726.25;1698099;83;20162;-79
2021/12/30 03:52:20;;;;;;;;;;;;;;;3.51;100.00;99729.95;1693413;83;20615;-78
2021/12/30 03:54:43;;;;;;;;;;;;;;;3.59;100.00;99727.56;1699174;83;20132;-78
2021/12/30 03:57:09;;;;;;;;;;;;;;;3.58;100.00;99723.28;1694347;83;20160;-79
2021/12/30 03:59:34;;;;;;;;;;;;;;;3.48;100.00;99728.89;1697719;83;21139;-77
2021/12/30 04:02:00;;;;;;;;;;;;;;;3.54;100.00;99736.23;1705404;83;20283;-77
2021/12/30 04:04:26;;;;;;;;;;;;;;;3.53;100.00;99739.79;1690899;83;21151;-80
2021/12/30 04:06:51;;;;;;;;;;;;;;;3.53;100.00;99742.41;1708368;83;20133;-77
2021/12/30 04:09:18;;;;;;;;;;;;;;;3.54;100.00;99741.46;1701036;83;20140;-78
2021/12/30 04:11:43;;;;;;;;;;;;;;;3.49;100.00;99747.98;1705419;83;20707;-80
2021/12/30 04:14:09;;;;;;;;;;;;;;;3.49;100.00;99756.63;1698655;83;20126;-77
2021/12/30 04:16:35;;;;;;;;;;;;;;;3.40;100.00;99752.98;1699280;83;20138;-77
2021/12/30 04:19:01;;;;;;;;;;;;;;;3.33;100.00;99758.31;1708621;83;20163;-79
2021/12/30 04:21:27;;;;;;;;;;;;;;;3.40;100.00;99771.70;1685000;83;20360;-77
2021/12/30 04:23:52;;;;;;;;;;;;;;;3.41;100.00;99774.20;1694142;83;21180;-79
2021/12/30 04:26:18;;;;;;;;;;;;;;;3.40;100.00;99777.78;1688342;83;20215;-79
2021/12/30 04:28:44;;;;;;;;;;;;;;;3.42;100.00;99773.75;1693559;83;20230;-79
2021/12/30 04:31:10;;;;;;;;;;;;;;;3.43;100.00;99774.08;1705646;83;20201;-80
2021/12/30 04:33:36;;;;;;;;;;;;;;;3.50;100.00;99773.97;1690324;83;20215;-79
2021/12/30 04:36:02;;;;;;;;;;;;;;;3.52;100.00;99773.36;1694280;83;21388;-78
2021/12/30 04:38:29;;;;;;;;;;;;;;;3.58;100.00;99767.66;1691059;83;20243;-78
2021/12/30 04:40:56;;;;;;;;;;;;;;;3.64;100.00;99769.45;1686449;83;20217;-83
2021/12/30 04:43:22;;;;;;;;;;;;;;;3.69;100.00;99764.20;1683886;83;20223;-78
2021/12/30 04:45:48;;;;;;;;;;;;;;;3.71;100.00;99752.33;1682907;83;20198;-78
2021/12/30 04:48:15;;;;;;;;;;;;;;;3.73;100.00;99753.06;1683893;83;21247;-77
2021/12/30 04:50:40;;;;;;;;;;;;;;;3.67;100.00;99749.63;1696282;83;20354;-78
2021/12/30 04:53:06;;;;;;;;;;;;;;;3.61;100.00;99754.03;1700331;83;20156;-77
2021/12/30 04:55:31;;;;;;;;;;;;;;;3.47;100.00;99760.34;1684985;83;21125;-80
2021/12/30 04:57:57;;;;;;;;;;;;;;;3.40;100.00;99759.97;1688014;83;20183;-81
2021/12/30 05:00:23;;;;;;;;;;;;;;;3.44;100.00;99753.56;1696218;83;21371;-79
2021/12/30 05:03:09;;;;;;;;;;;;;;;3.47;100.00;99755.11;1685293;83;20424;-79
2021/12/30 05:05:40;;;;;;;;;;;;;;;3.50;100.00;99762.22;1686507;83;20440;-80
2021/12/30 05:08:06;;;;;;;;;;;;;;;3.49;100.00;99761.03;1683803;83;20193;-80
2021/12/30 05:10:32;;;;;;;;;;;;;;;3.48;100.00;99747.63;1703581;83;20210;-82
2021/12/30 05:12:57;;;;;;;;;;;;;;;3.55;100.00;99750.94;1691362;83;21159;-79
2021/12/30 05:15:23;;;;;;;;;;;;;;;3.57;100.00;99750.36;1687724;83;20652;-79
2021/12/30 05:17:48;;;;;;;;;;;;;;;3.51;100.00;99757.82;1687553;83;20134;-80
2021/12/30 05:20:14;;;;;;;;;;;;;;;3.62;100.00;99766.12;1695782;83;20497;-79
2021/12/30 05:22:42;;;;;;;;;;;;;;;3.68;100.00;99766.94;1685917;83;20115;-79
2021/12/30 05:25:09;;;;;;;;;;;;;;;3.72;100.00;99767.06;1691568;83;21204;-79
2021/12/30 05:27:35;;;;;;;;;;;;;;;3.65;100.00;99763.27;1698838;83;20188;-82
2021/12/30 05:30:02;;;;;;;;;;;;;;;3.69;100.00;99764.69;1694101;83;20478;-78
2021/12/30 05:32:28;;;;;;;;;;;;;;;3.71;100.00;99760.16;1683599;83;20578;-78
2021/12/30 05:34:53;;;;;;;;;;;;;;;3.75;100.00;99765.02;1693776;83;20473;-79
2021/12/30 05:37:19;;;;;;;;;;;;;;;3.86;100.00;99752.42;1693676;83;21188;-79
2021/12/30 05:39:45;;;;;;;;;;;;;;;3.97;100.00;99750.73;1693069;83;20144;-79
2021/12/30 05:42:10;;;;;;;;;;;;;;;4.02;100.00;99739.43;1686661;83;20207;-79
2021/12/30 05:44:36;;;;;;;;;;;;;;;4.02;100.00;99736.82;1689720;83;21263;-83
2021/12/30 05:47:02;;;;;;;;;;;;;;;4.04;100.00;99738.82;1694940;83;20136;-80
2021/12/30 05:49:27;;;;;;;;;;;;;;;3.93;100.00;99768.42;1684355;83;21093;-79
2021/12/30 05:51:53;;;;;;;;;;;;;;;3.96;100.00;99774.70;1698002;83;20175;-79
2021/12/30 05:54:18;;;;;;;;;;;;;;;3.94;100.00;99774.83;1699594;83;20655;-79
2021/12/30 05:56:44;;;;;;;;;;;;;;;3.73;100.00;99773.95;1691198;83;20184;-79
2021/12/30 05:59:10;;;;;;;;;;;;;;;3.68;100.00;99786.52;1692655;83;20188;-82
2021/12/30 06:01:35;;;;;;;;;;;;;;;3.61;100.00;99797.11;1686464;83;21146;-79
2021/12/30 06:04:01;;;;;;;;;;;;;;;3.59;100.00;99804.58;1698617;83;20148;-80
2021/12/30 06:06:26;;;;;;;;;;;;;;;3.64;100.00;99809.92;1688697;83;20462;-83
2021/12/30 06:08:54;;;;;;;;;;;;;;;3.57;100.00;99806.48;1690467;83;20140;-80
2021/12/30 06:11:19;;;;;;;;;;;;;;;3.62;100.00;99800.91;1676329;83;20229;-80
2021/12/30 06:13:45;;;;;;;;;;;;;;;3.67;100.00;99812.30;1682613;83;21237;-81
2021/12/30 06:16:10;;;;;;;;;;;;;;;3.68;100.00;99807.41;1679343;83;20297;-83
2021/12/30 06:18:36;;;;;;;;;;;;;;;3.75;100.00;99798.16;1695602;83;20161;-80
2021/12/30 06:21:02;;;;;;;;;;;;;;;3.59;100.00;99803.27;1688036;83;20134;-81
2021/12/30 06:23:27;;;;;;;;;;;;;;;3.65;100.00;99819.41;1687363;83;20548;-78
2021/12/30 06:25:53;;;;;;;;;;;;;;;3.73;100.00;99826.19;1680350;83;21044;-83
2021/12/30 06:28:18;;;;;;;;;;;;;;;3.83;100.00;99831.50;1689616;83;20164;-78
2021/12/30 06:30:44;;;;;;;;;;;;;;;3.86;100.00;99819.52;1690688;83;21040;-82
2021/12/30 06:33:09;;;;;;;;;;;;;;;3.83;100.00;99816.66;1688784;83;20127;-80
2021/12/30 06:35:35;;;;;;;;;;;;;;;3.77;100.00;99824.48;1689053;83;20160;-80
2021/12/30 06:38:02;;;;;;;;;;;;;;;3.75;100.00;99829.50;1694918;83;21104;-80
2021/12/30 06:40:27;;;;;;;;;;;;;;;3.81;100.00;99825.09;1692684;83;20221;-79
2021/12/30 06:42:53;;;;;;;;;;;;;;;3.88;100.00;99827.56;1686039;83;20223;-79
2021/12/30 06:45:18;;;;;;;;;;;;;;;3.92;100.00;99828.17;1693328;83;20160;-80
2021/12/30 06:47:45;;;;;;;;;;;;;;;4.00;100.00;99840.63;1687775;83;20195;-77
2021/12/30 06:50:12;;;;;;;;;;;;;;;4.05;100.00;99837.16;1689517;83;21254;-77
2021/12/30 06:52:38;;;;;;;;;;;;;;;4.12;100.00;99837.04;1691423;83;20140;-79
2021/12/30 06:55:03;;;;;;;;;;;;;;;4.16;100.00;99833.70;1685149;83;20186;-80
2021/12/30 06:57:29;;;;;;;;;;;;;;;4.17;100.00;99845.33;1693389;83;20183;-79
2021/12/30 06:59:55;;;;;;;;;;;;;;;4.03;100.00;99844.30;1680886;83;20159;-78
2021/12/30 07:02:21;;;;;;;;;;;;;;;4.02;100.00;99853.91;1679079;83;21110;-80
2021/12/30 07:04:46;;;;;;;;;;;;;;;3.98;100.00;99852.96;1691199;83;20502;-80
2021/12/30 07:07:12;;;;;;;;;;;;;;;4.02;100.00;99845.24;1690341;83;20160;-81
2021/12/30 07:09:38;;;;;;;;;;;;;;;4.03;100.00;99850.84;1694559;83;20163;-77
2021/12/30 07:12:04;;;;;;;;;;;;;;;4.11;100.00;99845.82;1687271;83;20620;-81
2021/12/30 07:14:30;;;;;;;;;;;;;;;4.09;100.00;99843.81;1692100;83;21198;-80
2021/12/30 07:16:55;;;;;;;;;;;;;;;4.10;100.00;99844.16;1688564;83;20462;-79
2021/12/30 07:19:21;;;;;;;;;;;;;;;4.15;100.00;99849.86;1698474;83;20243;-79
2021/12/30 07:21:47;;;;;;;;;;;;;;;4.19;100.00;99851.26;1689648;83;21511;-79
2021/12/30 07:24:12;;;;;;;;;;;;;;;4.22;100.00;99851.02;1684631;83;20115;-79
2021/12/30 07:26:38;;;;;;;;;;;;;;;4.20;100.00;99850.31;1698315;83;21175;-79
2021/12/30 07:29:04;;;;;;;;;;;;;;;4.23;100.00;99853.17;1701304;83;20139;-79
2021/12/30 07:31:30;;;;;;;;;;;;;;;4.25;100.00;99856.00;1691860;83;20235;-79
2021/12/30 07:33:56;;;;;;;;;;;;;;;4.29;100.00;99861.34;1701414;83;20223;-81
2021/12/30 07:36:21;;;;;;;;;;;;;;;4.27;100.00;99868.48;1706047;83;20188;-80
2021/12/30 07:38:48;;;;;;;;;;;;;;;4.31;100.00;99861.22;1693556;83;21155;-80
2021/12/30 07:41:14;;;;;;;;;;;;;;;4.31;100.00;99867.76;1705774;83;20160;-79
2021/12/30 07:43:40;;;;;;;;;;;;;;;4.37;100.00;99866.45;1695468;83;20286;-79
2021/12/30 07:46:07;;;;;;;;;;;;;;;4.42;100.00;99862.97;1699063;83;20212;-81
2021/12/30 07:48:33;;;;;;;;;;;;;;;4.42;100.00;99860.36;1693113;83;20246;-82
2021/12/30 07:50:58;;;;;;;;;;;;;;;4.14;100.00;99864.69;1692591;83;21179;-78
2021/12/30 07:53:24;;;;;;;;;;;;;;;4.00;100.00;99861.53;1686485;83;20211;-78
2021/12/30 07:55:50;;;;;;;;;;;;;;;4.07;100.00;99862.69;1700170;83;20167;-78
2021/12/30 07:58:16;;;;;;;;;;;;;;;4.11;100.00;99870.16;1700378;83;20191;-78
2021/12/30 08:00:41;;;;;;;;;;;;;;;4.16;100.00;99865.88;1694450;83;20214;-79
2021/12/30 08:03:07;;;;;;;;;;;;;;;4.17;100.00;99859.70;1703193;83;21102;-78
2021/12/30 08:05:32;;;;;;;;;;;;;;;4.18;100.00;99854.84;1691527;83;20503;-78
2021/12/30 08:07:58;;;;;;;;;;;;;;;4.22;100.00;99848.41;1703671;83;20569;-78
2021/12/30 08:10:24;;;;;;;;;;;;;;;4.30;100.00;99846.02;1693756;83;20368;-78
2021/12/30 08:12:50;;;;;;;;;;;;;;;4.26;100.00;99848.52;1701996;83;20262;-78
2021/12/30 08:15:16;;;;;;;;;;;;;;;4.31;100.00;99846.36;1693389;83;21910;-78
2021/12/30 08:17:42;;;;;;;;;;;;;;;4.31;100.00;99847.66;1703716;83;20136;-78
2021/12/30 08:20:09;;;;;;;;;;;;;;;4.27;100.00;99843.66;1700706;83;20286;-78
2021/12/30 08:22:35;;;;;;;;;;;;;;;4.29;100.00;99848.27;1700424;83;20239;-78
2021/12/30 08:25:01;;;;;;;;;;;;;;;4.36;100.00;99849.09;1697093;83;20254;-78
2021/12/30 08:27:26;;;;;;;;;;;;;;;4.39;100.00;99856.69;1706805;83;21178;-80
2021/12/30 08:29:52;;;;;;;;;;;;;;;4.33;100.00;99862.41;1699787;83;20175;-78
2021/12/30 08:32:18;;;;;;;;;;;;;;;4.38;100.00;99862.86;1695349;83;20678;-76
2021/12/30 08:34:44;;;;;;;;;;;;;;;4.44;100.00;99874.13;1701510;83;20177;-78
2021/12/30 08:37:11;;;;;;;;;;;;;;;4.53;100.00;99869.47;1709120;83;20195;-82
2021/12/30 08:39:38;;;;;;;;;;;;;;;4.62;100.00;99870.03;1720690;83;21184;-78
2021/12/30 08:42:05;;;;;;;;;;;;;;;4.75;100.00;99872.95;1711331;83;20659;-77
2021/12/30 08:44:30;;;;;;;;;;;;;;;4.76;100.00;99878.55;1708354;83;20235;-79
2021/12/30 08:46:56;;;;;;;;;;;;;;;4.77;100.00;99877.57;1711223;83;20198;-78
2021/12/30 08:49:22;;;;;;;;;;;;;;;4.78;100.00;99873.52;1698552;83;20890;-78
2021/12/30 08:51:47;;;;;;;;;;;;;;;4.75;100.00;99872.95;1711165;83;21231;-79
2021/12/30 08:54:13;;;;;;;;;;;;;;;4.83;100.00;99870.53;1703356;83;20495;-80
2021/12/30 08:56:38;;;;;;;;;;;;;;;4.77;100.00;99868.41;1708688;83;20152;-79
2021/12/30 08:59:04;;;;;;;;;;;;;;;4.79;100.00;99878.30;1708698;83;20168;-78
2021/12/30 09:01:30;;;;;;;;;;;;;;;4.86;100.00;99880.74;1703627;83;20174;-79
2021/12/30 09:03:55;;;;;;;;;;;;;;;4.88;100.00;99875.38;1697476;83;21079;-80
2021/12/30 09:06:21;;;;;;;;;;;;;;;4.82;100.00;99876.25;1701681;83;20120;-79
2021/12/30 09:08:47;;;;;;;;;;;;;;;4.85;100.00;99873.38;1705448;83;20497;-78
2021/12/30 09:11:13;;;;;;;;;;;;;;;4.87;100.00;99877.19;1712516;83;20224;-78
2021/12/30 09:13:38;;;;;;;;;;;;;;;4.88;100.00;99884.08;1714638;83;20200;-78
2021/12/30 09:16:04;;;;;;;;;;;;;;;4.91;100.00;99875.98;1707469;83;20996;-81
2021/12/30 09:18:29;;;;;;;;;;;;;;;4.87;100.00;99877.19;1712987;83;20175;-78
2021/12/30 09:20:55;;;;;;;;;;;;;;;4.89;100.00;99871.82;1707425;83;20527;-79
2021/12/30 09:23:21;;;;;;;;;;;;;;;4.94;100.00;99871.80;1706658;83;20190;-78
2021/12/30 09:25:47;;;;;;;;;;;;;;;5.03;100.00;99864.96;1706659;83;20170;-79
2021/12/30 09:28:13;;;;;;;;;;;;;;;5.02;100.00;99860.22;1702298;83;21166;-78
2021/12/30 09:30:40;;;;;;;;;;;;;;;5.04;100.00;99851.75;1710836;83;20283;-80
2021/12/30 09:33:05;;;;;;;;;;;;;;;5.09;100.00;99851.86;1695293;83;20487;-80
2021/12/30 09:35:31;;;;;;;;;;;;;;;5.02;100.00;99843.20;1695049;83;20713;-81
2021/12/30 09:37:57;;;;;;;;;;;;;;;4.97;100.00;99844.08;1682569;83;20129;-77
2021/12/30 09:40:23;;;;;;;;;;;;;;;4.91;100.00;99841.97;1697992;83;21080;-76
2021/12/30 09:42:53;;;;;;;;;;;;;;;4.99;100.00;99840.84;1684598;83;20096;-77
2021/12/30 09:45:18;;;;;;;;;;;;;;;4.97;100.00;99851.08;1685463;83;20986;-80
2021/12/30 09:47:49;;;;;;;;;;;;;;;4.96;100.00;99851.56;1690775;83;20148;-80
2021/12/30 09:50:15;;;;;;;;;;;;;;;4.98;100.00;99849.64;1699863;83;20228;-79
2021/12/30 09:52:41;;;;;;;;;;;;;;;4.94;100.00;99836.48;1693431;83;21117;-82
2021/12/30 09:55:07;;;;;;;;;;;;;;;4.97;100.00;99832.30;1692937;83;20274;-80
2021/12/30 09:57:33;;;;;;;;;;;;;;;5.08;100.00;99831.86;1690209;83;20138;-80
2021/12/30 09:59:58;;;;;;;;;;;;;;;5.11;100.00;99830.30;1686911;83;20565;-79
2021/12/30 10:02:24;;;;;;;;;;;;;;;5.31;100.00;99830.75;1693194;83;20522;-81
2021/12/30 10:05:01;;;;;;;;;;;;;;;5.25;100.00;99828.68;1695962;83;21057;-80
2021/12/30 10:07:27;;;;;;;;;;;;;;;5.36;100.00;99839.06;1693783;82;20226;-80
2021/12/30 10:09:59;;;;;;;;;;;;;;;5.34;100.00;99840.14;1685600;83;20474;-81
2021/12/30 10:12:44;;;;;;;;;;;;;;;5.36;100.00;99840.37;1695576;83;20140;-79
2021/12/30 10:15:08;;;;;;;;;;;;;;;5.37;100.00;99831.53;1687267;83;20212;-79
2021/12/30 10:17:34;;;;;;;;;;;;;;;5.42;100.00;99819.36;1688805;83;21144;-82
2021/12/30 10:20:18;;;;;;;;;;;;;;;5.42;100.00;99826.39;1694836;83;20262;-82
2021/12/30 10:22:46;;;;;;;;;;;;;;;5.45;100.00;99828.75;1687143;83;20270;-78
2021/12/30 10:25:33;;;;;;;;;;;;;;;5.46;100.00;99830.42;1688016;83;20456;-77
2021/12/30 10:28:23;;;;;;;;;;;;;;;5.40;100.00;99827.34;1668939;83;20232;-78
2021/12/30 10:30:50;;;;;;;;;;;;;;;5.44;100.00;99834.94;1688178;83;21116;-79
2021/12/30 10:33:24;;;;;;;;;;;;;;;5.46;100.00;99838.28;1664801;83;38398;-80
2021/12/30 10:35:50;;;;;;;;;;;;;;;5.45;100.00;99833.99;1686357;83;20238;-79
2021/12/30 10:38:16;;;;;;;;;;;;;;;5.49;100.00;99824.92;1677934;85;20199;-77
2021/12/30 10:40:45;;;;;;;;;;;;;;;5.51;100.00;99821.19;1674522;85;20465;-79
2021/12/30 10:46:22;;;;;;;;;;;;;;;5.47;100.00;99818.52;1675609;85;20204;-83
2021/12/30 10:48:56;;;;;;;;;;;;;;;5.51;100.00;99811.21;1673340;83;20191;-78
2021/12/30 10:51:34;;;;;;;;;;;;;;;5.39;100.00;99817.85;1670689;85;20257;-79
2021/12/30 10:54:14;;;;;;;;;;;;;;;5.33;100.00;99818.37;1671426;84;20359;-80
2021/12/30 10:56:46;;;;;;;;;;;;;;;5.33;100.00;99816.22;1653019;85;21111;-79
2021/12/30 10:59:26;;;;;;;;;;;;;;;5.36;100.00;99818.12;1670308;85;20985;-80
2021/12/30 11:02:08;;;;;;;;;;;;;;;5.31;100.00;99812.42;1677710;85;20117;-79
2021/12/30 11:04:41;;;;;;;;;;;;;;;5.32;100.00;99809.34;1671034;85;20206;-80
2021/12/30 11:07:08;;;;;;;;;;;;;;;5.37;100.00;99806.66;1675341;85;20467;-83
2021/12/30 11:09:34;;;;;;;;;;;;;;;5.40;100.00;99803.78;1670766;85;21186;-81
2021/12/30 11:12:03;;;;;;;;;;;;;;;5.36;100.00;99815.50;1675993;85;20738;-79
2021/12/30 11:14:30;;;;;;;;;;;;;;;5.36;100.00;99818.12;1669867;85;20517;-81
2021/12/30 11:17:05;;;;;;;;;;;;;;;5.48;100.00;99818.84;1670404;85;20193;-78
2021/12/30 11:19:30;;;;;;;;;;;;;;;5.54;100.00;99830.09;1672836;85;20204;-86
2021/12/30 11:21:58;;;;;;;;;;;;;;;5.40;100.00;99822.11;1672728;85;21093;-80
2021/12/30 11:24:25;;;;;;;;;;;;;;;5.51;100.00;99817.76;1672614;85;20271;-80
2021/12/30 11:26:50;;;;;;;;;;;;;;;5.50;100.00;99813.47;1683252;85;20140;-77
2021/12/30 11:29:16;;;;;;;;;;;;;;;5.54;100.00;99805.22;1673579;83;20258;-79
2021/12/30 11:31:43;;;;;;;;;;;;;;;5.65;100.00;99802.16;1685659;85;20156;-78
2021/12/30 11:34:09;;;;;;;;;;;;;;;5.57;100.00;99802.83;1677038;83;21004;-80
2021/12/30 11:36:35;;;;;;;;;;;;;;;5.52;100.00;99799.78;1685736;83;20144;-81
2021/12/30 11:39:03;;;;;;;;;;;;;;;5.55;100.00;99800.83;1685780;83;20411;-77
2021/12/30 11:41:29;;;;;;;;;;;;;;;5.62;100.00;99799.31;1697601;83;20237;-78
2021/12/30 11:43:55;;;;;;;;;;;;;;;5.67;100.00;99794.53;1681358;83;20491;-77
2021/12/30 11:46:39;;;;;;;;;;;;;;;5.82;100.00;99794.14;1690269;83;21196;-79
2021/12/30 11:49:05;;;;;;;;;;;;;;;5.90;100.00;99792.98;1689477;83;20247;-78
2021/12/30 11:51:46;;;;;;;;;;;;;;;5.84;100.00;99785.66;1687864;83;20184;-78
2021/12/30 11:54:31;;;;;;;;;;;;;;;5.95;100.00;99786.88;1685405;83;20167;-83
2021/12/30 11:57:31;;;;;;;;;;;;;;;5.89;100.00;99787.41;1693499;83;20203;-78
2021/12/30 11:59:59;;;;;;;;;;;;;;;5.97;100.00;99786.28;1682564;83;21222;-79
2021/12/30 12:02:36;;;;;;;;;;;;;;;5.99;100.00;99785.66;1688829;83;20394;-79
2021/12/30 12:05:34;;;;;;;;;;;;;;;6.09;100.00;99785.20;1685521;83;20191;-79
2021/12/30 12:08:08;;;;;;;;;;;;;;;6.21;100.00;99787.19;1651412;83;20187;-79
2021/12/30 12:10:33;;;;;;;;;;;;;;;6.20;100.00;99786.02;1678559;83;20317;-79
2021/12/30 12:13:12;;;;;;;;;;;;;;;6.14;100.00;99786.09;1693570;83;21290;-78
2021/12/30 12:15:43;;;;;;;;;;;;;;;6.16;100.00;99781.53;1704585;82;20198;-78
2021/12/30 12:18:11;;;;;;;;;;;;;;;6.14;100.00;99789.18;1672367;84;20203;-80
2021/12/30 12:20:36;;;;;;;;;;;;;;;6.17;100.00;99775.34;1703164;84;20174;-80
2021/12/30 12:23:07;;;;;;;;;;;;;;;6.17;100.00;99779.73;1712232;82;20491;-78
2021/12/30 12:25:32;;;;;;;;;;;;;;;6.24;100.00;99780.85;1684531;82;21119;-77
2021/12/30 12:27:58;;;;;;;;;;;;;;;6.18;100.00;99784.02;1705902;82;21227;-77
2021/12/30 12:30:35;;;;;;;;;;;;;;;6.16;100.00;99780.72;1680416;83;20147;-81
2021/12/30 12:33:21;;;;;;;;;;;;;;;6.08;100.00;99789.27;1693034;83;20232;-81
2021/12/30 12:35:47;;;;;;;;;;;;;;;6.07;100.00;99787.11;1692244;83;20274;-80
2021/12/30 12:38:12;;;;;;;;;;;;;;;6.07;100.00;99780.55;1685790;83;21245;-83
2021/12/30 12:40:40;;;;;;;;;;;;;;;5.89;100.00;99785.61;1687292;83;20212;-79
2021/12/30 12:43:11;;;;;;;;;;;;;;;5.97;100.00;99778.91;1690009;83;20249;-79
2021/12/30 12:45:41;;;;;;;;;;;;;;;5.95;100.00;99779.02;1689779;83;20201;-78
2021/12/30 12:48:22;;;;;;;;;;;;;;;5.85;100.00;99776.84;1691428;83;20172;-78
2021/12/30 12:50:58;;;;;;;;;;;;;;;5.80;100.00;99777.73;1688503;83;21040;-79